KCNY/CNY METAR and TAF weather

Enter ICAO airport designator
Station Type Date Time Source
KCNY METAR 2018/07/19 06:53 UTC NOAA

KCNY 190653Z AUTO 22004KT 10SM CLR 26/08 A3004 RMK AO2 SLP099 T02610078 403830189


Station Type Date Time Source
KCNY Decoded METAR 2018/07/19 06:53 UTC NOAA

MOAB CANYONLANDS FIELD, UT, United States (KCNY) 38-46N 109-45W 1390M
Jul 19, 2018 - 02:53 AM EDT / 2018.07.19 0653 UTC
Wind: from the SW (220 degrees) at 5 MPH (4 KT):0
Visibility: 10 mile(s):0
Sky conditions: clear
Temperature: 79.0 F (26.1 C)
Dew Point: 46.0 F (7.8 C)
Relative Humidity: 31%
Pressure (altimeter): 30.04 in. Hg (1017 hPa)
ob: KCNY 190653Z AUTO 22004KT 10SM CLR 26/08 A3004 RMK AO2 SLP099 T02610078 403830189
cycle: 7

Station Type Date Time Source
KCNY TAF 2018/07/19 06:34 UTC NOAA

TAF KCNY 190532Z 1906/2006 VRB04KT P6SM FEW130 SCT250
FM191200 11005KT P6SM FEW250
FM191900 26012G20KT P6SM FEW140 SCT250
FM200500 25006KT P6SM FEW130 SCT200


Example: see airport list